Time;durP1;ratioP1;P1;durP2;ratioP2;P2;SDS_P1;SDS_P2;PMS_P1;PMS_P2;Temp;Humidity;BMP_temperature;BMP_pressure;BME280_temperature;BME280_humidity;BME280_pressure;Samples;Min_cycle;Max_cycle;Signal;HPM_P1;HPM_P2
2022/02/24 00:02:25;;;;;;;81.22;30.50;;;;;;;-0.77;68.10;98013.44;1780986;79;26656;-88
2022/02/24 00:04:52;;;;;;;156.80;42.27;;;;;;;-0.78;68.26;98018.38;1781038;79;25717;-89
2022/02/24 00:07:18;;;;;;;116.25;37.80;;;;;;;-0.76;68.29;98017.78;1781099;79;27525;-89
2022/02/24 00:09:45;;;;;;;96.10;33.92;;;;;;;-0.82;68.31;98016.45;1780930;79;25518;-89
2022/02/24 00:12:11;;;;;;;107.22;34.75;;;;;;;-0.82;68.38;98014.28;1781102;79;26422;-87
2022/02/24 00:14:38;;;;;;;101.25;33.65;;;;;;;-0.82;68.27;98015.12;1780777;79;26512;-89
2022/02/24 00:17:07;;;;;;;79.03;29.20;;;;;;;-0.87;68.28;98007.22;1781154;79;25780;-88
2022/02/24 00:19:34;;;;;;;90.92;34.53;;;;;;;-0.91;68.28;98007.09;1780898;79;27413;-89
2022/02/24 00:22:01;;;;;;;88.10;33.10;;;;;;;-0.95;68.35;98012.28;1780998;79;25756;-89
2022/02/24 00:24:27;;;;;;;76.25;30.85;;;;;;;-0.94;68.39;98003.36;1781082;79;25713;-89
2022/02/24 00:26:54;;;;;;;67.85;26.75;;;;;;;-0.95;68.44;98002.52;1781119;79;25832;-90
2022/02/24 00:29:21;;;;;;;68.00;25.95;;;;;;;-0.96;68.48;98010.11;1781123;79;25678;-89
2022/02/24 00:31:47;;;;;;;66.15;26.73;;;;;;;-0.98;68.52;98003.28;1781096;80;26880;-89
2022/02/24 00:34:15;;;;;;;75.45;27.00;;;;;;;-0.97;68.53;98007.61;1780944;79;25745;-89
2022/02/24 00:36:42;;;;;;;59.05;23.35;;;;;;;-1.00;68.49;97997.25;1781129;79;25819;-89
2022/02/24 00:39:09;;;;;;;54.75;20.65;;;;;;;-1.11;68.47;97997.65;1781019;79;25846;-86
2022/02/24 00:41:36;;;;;;;59.65;22.73;;;;;;;-1.16;68.69;97999.81;1781229;79;25642;-89
2022/02/24 00:44:04;;;;;;;51.40;20.10;;;;;;;-1.18;68.79;97991.14;1781018;79;28316;-89
2022/02/24 00:46:30;;;;;;;46.92;18.60;;;;;;;-1.23;68.95;97987.20;1780942;79;25737;-88
2022/02/24 00:48:58;;;;;;;61.77;23.12;;;;;;;-1.21;69.05;97983.44;1781032;80;25815;-88
2022/02/24 00:51:24;;;;;;;65.50;23.42;;;;;;;-1.18;68.96;97987.17;1781017;80;25772;-81
2022/02/24 00:53:51;;;;;;;58.78;21.35;;;;;;;-1.20;68.87;97990.42;1781115;79;25247;-89
2022/02/24 00:56:17;;;;;;;57.60;21.50;;;;;;;-1.21;68.90;97976.81;1781090;79;27439;-89
2022/02/24 00:58:44;;;;;;;49.03;20.75;;;;;;;-1.25;68.80;97984.67;1784922;78;26007;-89
2022/02/24 01:01:11;;;;;;;55.85;21.42;;;;;;;-1.25;68.92;97979.38;1789322;78;25673;-89
2022/02/24 01:03:37;;;;;;;45.90;21.02;;;;;;;-1.31;68.90;97973.71;1789342;78;25819;-90
2022/02/24 01:06:04;;;;;;;49.45;20.52;;;;;;;-1.33;69.00;97972.54;1789413;79;25673;-90
2022/02/24 01:08:30;;;;;;;51.73;21.05;;;;;;;-1.31;69.05;97977.20;1790820;78;28439;-82
2022/02/24 01:10:57;;;;;;;51.60;20.65;;;;;;;-1.33;68.95;97976.52;1790648;78;25937;-89
2022/02/24 01:13:24;;;;;;;55.45;22.60;;;;;;;-1.36;68.91;97972.78;1789118;78;25752;-89
2022/02/24 01:15:50;;;;;;;58.80;22.73;;;;;;;-1.43;68.94;97975.55;1789347;78;25764;-86
2022/02/24 01:18:17;;;;;;;61.37;21.55;;;;;;;-1.47;68.98;97972.32;1789439;78;25772;-89
2022/02/24 01:20:44;;;;;;;63.70;22.70;;;;;;;-1.49;69.10;97977.38;1789526;78;27293;-89
2022/02/24 01:23:10;;;;;;;72.00;24.47;;;;;;;-1.48;69.18;97979.06;1789318;78;25825;-88
2022/02/24 01:25:37;;;;;;;78.02;25.88;;;;;;;-1.48;69.19;97980.38;1789346;78;25701;-89
2022/02/24 01:28:04;;;;;;;84.28;27.20;;;;;;;-1.50;69.16;97984.95;1789442;79;25831;-86
2022/02/24 01:30:30;;;;;;;79.35;29.27;;;;;;;-1.53;69.17;97989.16;1789419;78;26224;-87
2022/02/24 01:32:58;;;;;;;73.67;26.95;;;;;;;-1.56;69.10;97983.63;1788976;78;28358;-89
2022/02/24 01:35:25;;;;;;;65.10;24.55;;;;;;;-1.56;69.09;97989.39;1789246;78;25790;-89
2022/02/24 01:37:52;;;;;;;52.93;21.37;;;;;;;-1.57;69.11;97987.74;1789369;78;25733;-88
2022/02/24 01:40:19;;;;;;;51.80;20.95;;;;;;;-1.60;69.18;97993.27;1789350;78;26604;-89
2022/02/24 01:42:45;;;;;;;55.80;19.92;;;;;;;-1.66;69.18;97993.74;1789295;78;25329;-89
2022/02/24 01:45:13;;;;;;;50.85;20.20;;;;;;;-1.67;69.30;97994.22;1789293;78;27588;-86
2022/02/24 01:47:41;;;;;;;40.55;19.65;;;;;;;-1.66;69.35;97993.74;1789305;80;25701;-89
2022/02/24 01:50:10;;;;;;;46.80;17.42;;;;;;;-1.66;69.47;97989.77;1789289;78;25804;-89
2022/02/24 01:52:41;;;;;;;45.17;16.15;;;;;;;-1.67;69.56;97993.38;1789331;78;26484;-89
2022/02/24 01:55:09;;;;;;;33.25;15.10;;;;;;;-1.67;69.53;97998.67;1789407;79;25724;-89
2022/02/24 01:57:35;;;;;;;37.50;14.47;;;;;;;-1.77;69.54;97996.39;1758464;80;27336;-89
2022/02/24 02:00:06;;;;;;;46.13;16.65;;;;;;;-1.87;69.72;97992.30;1781398;79;25258;-88
2022/02/24 02:02:33;;;;;;;49.58;18.60;;;;;;;-1.86;69.83;97986.05;1781005;79;25836;-88
2022/02/24 02:04:59;;;;;;;48.87;19.10;;;;;;;-1.83;69.87;97984.02;1781054;79;25750;-89
2022/02/24 02:07:26;;;;;;;43.90;17.90;;;;;;;-1.82;69.89;97994.97;1781106;79;25753;-89
2022/02/24 02:09:53;;;;;;;46.70;17.98;;;;;;;-1.83;69.81;97991.12;1780798;79;26852;-89
2022/02/24 02:12:21;;;;;;;46.15;18.15;;;;;;;-1.94;69.83;97997.73;1780950;79;26059;-89
2022/02/24 02:14:48;;;;;;;50.50;18.17;;;;;;;-1.99;70.00;97998.07;1781169;79;25600;-89
2022/02/24 02:17:14;;;;;;;48.30;17.90;;;;;;;-2.03;70.19;97995.30;1781356;79;26283;-87
2022/02/24 02:19:41;;;;;;;40.80;17.48;;;;;;;-2.03;70.32;98000.58;1781221;79;25732;-89
2022/02/24 02:22:08;;;;;;;38.98;16.35;;;;;;;-2.03;70.41;97995.77;1781431;79;27616;-86
2022/02/24 02:24:34;;;;;;;39.05;16.52;;;;;;;-2.03;70.40;97993.97;1781328;79;25772;-89
2022/02/24 02:27:01;;;;;;;51.65;19.00;;;;;;;-2.01;70.41;97994.70;1781461;79;25776;-89
2022/02/24 02:29:27;;;;;;;47.13;16.85;;;;;;;-2.00;70.40;97999.03;1781519;79;25769;-89
2022/02/24 02:31:54;;;;;;;48.35;17.40;;;;;;;-2.02;70.43;97995.66;1781689;80;25208;-87
2022/02/24 02:34:21;;;;;;;43.95;15.45;;;;;;;-2.05;70.46;97993.75;1781922;79;27314;-89
2022/02/24 02:36:49;;;;;;;36.20;15.40;;;;;;;-2.04;70.53;97990.96;1781712;79;26372;-90
2022/02/24 02:39:17;;;;;;;32.98;14.98;;;;;;;-1.99;70.56;97998.07;1781644;79;25771;-89
2022/02/24 02:41:46;;;;;;;34.30;14.47;;;;;;;-2.04;70.46;98001.55;1782069;79;25902;-88
2022/02/24 02:44:14;;;;;;;45.33;16.15;;;;;;;-2.06;70.44;97992.91;1782144;79;25252;-87
2022/02/24 02:46:41;;;;;;;41.85;16.62;;;;;;;-2.09;70.39;97995.78;1782259;80;27389;-89
2022/02/24 02:49:08;;;;;;;91.65;27.27;;;;;;;-2.08;70.43;97999.27;1782584;80;25249;-89
2022/02/24 02:51:34;;;;;;;62.60;24.50;;;;;;;-2.08;70.40;98001.92;1782639;80;25232;-89
2022/02/24 02:54:01;;;;;;;64.10;21.75;;;;;;;-2.09;70.41;98003.72;1782473;79;25822;-88
2022/02/24 02:56:28;;;;;;;51.13;20.80;;;;;;;-2.10;70.42;98006.00;1783450;79;25255;-89
2022/02/24 02:58:54;;;;;;;44.10;15.78;;;;;;;-2.11;70.41;98002.98;1785580;78;27457;-86
2022/02/24 03:01:21;;;;;;;37.73;14.47;;;;;;;-2.14;70.43;97995.28;1791463;78;26110;-90
2022/02/24 03:03:47;;;;;;;37.35;15.32;;;;;;;-2.15;70.45;97995.39;1791670;78;26322;-89
2022/02/24 03:06:14;;;;;;;33.80;13.15;;;;;;;-2.18;70.47;97999.14;1792047;78;25904;-90
2022/02/24 03:08:41;;;;;;;37.65;14.93;;;;;;;-2.19;70.54;97991.69;1792112;78;25255;-89
2022/02/24 03:11:07;;;;;;;41.08;15.08;;;;;;;-2.21;70.53;97998.89;1792205;79;27451;-90
2022/02/24 03:13:35;;;;;;;36.83;14.78;;;;;;;-2.22;70.52;97997.69;1792162;78;25879;-90
2022/02/24 03:16:03;;;;;;;38.63;14.63;;;;;;;-2.24;70.52;97999.59;1792022;79;25866;-89
2022/02/24 03:18:30;;;;;;;36.25;14.63;;;;;;;-2.29;70.55;97992.00;1791837;78;25746;-89
2022/02/24 03:20:56;;;;;;;36.77;13.28;;;;;;;-2.30;70.59;97994.80;1791789;78;25705;-91
2022/02/24 03:23:23;;;;;;;32.35;11.88;;;;;;;-2.34;70.65;97993.33;1791948;78;27507;-90
2022/02/24 03:25:50;;;;;;;33.50;13.38;;;;;;;-2.36;70.83;97997.41;1792158;80;25286;-88
2022/02/24 03:28:16;;;;;;;30.57;12.75;;;;;;;-2.36;70.92;97996.09;1792115;78;25228;-89
2022/02/24 03:30:43;;;;;;;32.93;12.37;;;;;;;-2.34;70.85;97990.69;1791995;78;25731;-87
2022/02/24 03:33:09;;;;;;;35.85;14.28;;;;;;;-2.34;70.81;97988.05;1791903;78;25308;-91
2022/02/24 03:35:36;;;;;;;43.45;16.05;;;;;;;-2.41;70.85;97990.77;1791840;79;27345;-86
2022/02/24 03:38:03;;;;;;;49.05;17.87;;;;;;;-2.43;70.91;97982.14;1791544;78;25268;-90
2022/02/24 03:40:29;;;;;;;44.05;17.00;;;;;;;-2.43;70.96;97978.17;1791497;78;25751;-90
2022/02/24 03:42:56;;;;;;;54.53;18.42;;;;;;;-2.41;70.87;97980.20;1791281;78;26546;-89
2022/02/24 03:45:22;;;;;;;45.40;17.77;;;;;;;-2.47;70.85;97971.42;1791521;78;25670;-89
2022/02/24 03:47:49;;;;;;;57.73;19.42;;;;;;;-2.52;70.97;97974.89;1791327;78;27333;-89
2022/02/24 03:50:16;;;;;;;53.68;18.70;;;;;;;-2.52;71.09;97981.02;1790761;78;25300;-87
2022/02/24 03:52:43;;;;;;;61.77;20.10;;;;;;;-2.50;71.04;97974.30;1791109;78;25248;-89
2022/02/24 03:55:10;;;;;;;60.92;19.25;;;;;;;-2.55;71.01;97979.47;1790514;79;25686;-90
2022/02/24 03:57:37;;;;;;;53.78;17.80;;;;;;;-2.57;71.02;97976.09;1790345;78;25702;-87
2022/02/24 04:00:07;;;;;;;53.55;18.25;;;;;;;-2.60;70.98;97961.78;1791782;78;27578;-88
2022/02/24 04:02:34;;;;;;;45.60;14.95;;;;;;;-2.64;70.94;97964.28;1792820;78;25664;-84
2022/02/24 04:05:01;;;;;;;42.78;14.53;;;;;;;-2.73;71.04;97958.37;1793223;78;25579;-85
2022/02/24 04:07:28;;;;;;;44.88;15.88;;;;;;;-2.75;71.26;97962.94;1793500;78;25923;-86
2022/02/24 04:09:54;;;;;;;35.92;15.32;;;;;;;-2.80;71.38;97958.48;1793831;78;25268;-90
2022/02/24 04:12:21;;;;;;;36.17;14.23;;;;;;;-2.81;71.51;97962.56;1793704;78;27448;-90
2022/02/24 04:14:47;;;;;;;33.02;13.93;;;;;;;-2.83;71.51;97960.03;1793395;78;25239;-87
2022/02/24 04:17:14;;;;;;;35.78;12.55;;;;;;;-2.85;71.63;97955.34;1793572;78;25252;-87
2022/02/24 04:19:41;;;;;;;30.90;12.95;;;;;;;-2.84;71.71;97953.06;1793979;79;25920;-84
2022/02/24 04:22:08;;;;;;;26.87;13.90;;;;;;;-2.80;71.71;97952.36;1797702;78;25821;-91
2022/02/24 04:24:35;;;;;;;28.80;13.28;;;;;;;-2.78;71.68;97955.73;1801032;77;27528;-90
2022/02/24 04:27:02;;;;;;;41.58;15.83;;;;;;;-2.78;71.61;97951.30;1793692;78;25264;-90
2022/02/24 04:29:29;;;;;;;45.73;15.23;;;;;;;-2.84;71.61;97951.73;1793875;78;25579;-91
2022/02/24 04:31:55;;;;;;;45.43;15.40;;;;;;;-2.84;71.71;97953.06;1793704;78;26699;-92
2022/02/24 04:34:22;;;;;;;27.15;13.45;;;;;;;-2.81;71.69;97950.20;1793756;78;25210;-91
2022/02/24 04:36:48;;;;;;;28.05;13.13;;;;;;;-2.81;71.68;97948.88;1793981;78;27388;-90
2022/02/24 04:39:15;;;;;;;27.58;10.80;;;;;;;-2.81;71.60;97950.20;1793588;78;25200;-92
2022/02/24 04:41:42;;;;;;;26.55;12.60;;;;;;;-2.84;71.50;97949.09;1793917;78;25185;-87
2022/02/24 04:44:08;;;;;;;28.57;13.22;;;;;;;-2.86;71.50;97951.01;1793802;79;26654;-92
2022/02/24 04:46:35;;;;;;;28.05;13.50;;;;;;;-2.86;71.51;97949.69;1793633;80;25693;-91
2022/02/24 04:49:01;;;;;;;29.70;15.05;;;;;;;-2.86;71.46;97947.52;1793400;78;27569;-92
2022/02/24 04:51:28;;;;;;;36.58;15.93;;;;;;;-2.89;71.42;97944.63;1793327;78;25264;-91
2022/02/24 04:53:54;;;;;;;43.28;17.27;;;;;;;-2.96;71.40;97939.45;1793541;78;25701;-91
2022/02/24 04:56:21;;;;;;;51.37;21.62;;;;;;;-3.01;71.47;97941.10;1793787;80;26608;-92
2022/02/24 04:58:48;;;;;;;52.60;22.65;;;;;;;-3.01;71.58;97936.30;1793568;78;25788;-91
2022/02/24 05:01:14;;;;;;;55.83;23.90;;;;;;;-2.98;71.67;97940.03;1782259;79;27529;-92
2022/02/24 05:03:41;;;;;;;63.40;27.35;;;;;;;-3.00;71.60;97936.66;1781955;80;25494;-92
2022/02/24 05:06:07;;;;;;;74.75;32.85;;;;;;;-3.00;71.59;97941.94;1782186;80;25611;-91
2022/02/24 05:08:34;;;;;;;85.90;34.33;;;;;;;-3.00;71.60;97937.98;1781878;79;25822;-92
2022/02/24 05:11:01;;;;;;;80.67;32.40;;;;;;;-3.05;71.66;97932.22;1781634;79;25632;-90
2022/02/24 05:13:28;;;;;;;58.98;25.72;;;;;;;-3.07;71.73;97931.01;1781678;79;27394;-91
2022/02/24 05:15:55;;;;;;;67.10;26.75;;;;;;;-3.13;71.71;97924.00;1781853;79;25770;-92
2022/02/24 05:18:21;;;;;;;52.53;22.20;;;;;;;-3.18;71.84;97923.05;1781456;79;25789;-92
2022/02/24 05:20:48;;;;;;;50.15;20.27;;;;;;;-3.21;71.96;97919.78;1781740;79;26432;-92
2022/02/24 05:23:14;;;;;;;52.80;19.62;;;;;;;-3.27;72.06;97912.69;1781556;79;25513;-89
2022/02/24 05:25:41;;;;;;;46.18;21.37;;;;;;;-3.26;72.14;97914.34;1781830;80;27414;-93
2022/02/24 05:28:11;;;;;;;55.33;21.48;;;;;;;-3.30;72.23;97912.91;1781662;80;25268;-92
2022/02/24 05:30:38;;;;;;;50.25;22.02;;;;;;;-3.24;72.41;97916.03;1781610;79;25780;-91
2022/02/24 05:33:09;;;;;;;51.85;22.17;;;;;;;-3.18;72.47;97911.64;1782290;79;25772;-92
2022/02/24 05:35:34;;;;;;;51.45;24.05;;;;;;;-3.17;72.45;97915.48;1782041;78;25770;-89
2022/02/24 05:38:01;;;;;;;51.53;22.77;;;;;;;-3.16;72.54;97917.65;1781638;79;27572;-90
2022/02/24 05:40:28;;;;;;;55.03;24.12;;;;;;;-3.13;72.53;97920.04;1781604;79;25813;-93
2022/02/24 05:42:54;;;;;;;44.95;19.98;;;;;;;-3.14;72.53;97918.39;1782126;79;25819;-91
2022/02/24 05:45:21;;;;;;;50.70;22.67;;;;;;;-3.15;72.73;97911.41;1781778;79;25761;-92
2022/02/24 05:47:48;;;;;;;52.85;20.57;;;;;;;-3.18;72.77;97916.44;1781693;79;25717;-88
2022/02/24 05:50:15;;;;;;;43.63;19.25;;;;;;;-3.20;72.72;97918.34;1781363;79;27576;-92
2022/02/24 05:52:41;;;;;;;45.45;18.92;;;;;;;-3.17;72.74;97921.25;1781213;79;25639;-93
2022/02/24 05:55:09;;;;;;;47.48;18.48;;;;;;;-3.17;72.85;97919.92;1781294;80;25721;-90
2022/02/24 05:57:35;;;;;;;44.10;17.65;;;;;;;-3.18;72.92;97924.36;1781320;79;25834;-91
2022/02/24 06:00:04;;;;;;;41.48;18.73;;;;;;;-3.17;72.89;97918.61;1784867;78;25654;-92
2022/02/24 06:02:31;;;;;;;49.03;19.05;;;;;;;-3.17;72.92;97915.97;1789905;78;27482;-93
2022/02/24 06:04:58;;;;;;;39.55;17.70;;;;;;;-3.15;72.95;97921.50;1789897;80;25686;-93
2022/02/24 06:07:28;;;;;;;38.50;17.62;;;;;;;-3.15;72.96;97915.38;1789948;80;25275;-81
2022/02/24 06:09:55;;;;;;;43.80;17.02;;;;;;;-3.12;73.01;97919.09;1789900;79;25769;-93
2022/02/24 06:12:21;;;;;;;38.88;17.12;;;;;;;-3.06;72.96;97917.33;1789893;80;25690;-87
2022/02/24 06:14:48;;;;;;;37.17;16.20;;;;;;;-3.09;72.87;97918.87;1790019;80;27562;-93
2022/02/24 06:17:14;;;;;;;40.17;16.10;;;;;;;-3.08;72.90;97928.00;1789152;78;25874;-92
2022/02/24 06:19:42;;;;;;;42.03;17.32;;;;;;;-3.05;72.90;97929.09;1789327;80;25745;-89
2022/02/24 06:22:09;;;;;;;37.08;16.00;;;;;;;-3.07;72.98;97922.24;1789526;78;25675;-87
2022/02/24 06:24:35;;;;;;;35.43;16.15;;;;;;;-3.02;73.14;97914.32;1790065;78;25777;-87
2022/02/24 06:27:02;;;;;;;44.48;18.20;;;;;;;-2.94;73.23;97917.73;1791083;78;27419;-87
2022/02/24 06:29:29;;;;;;;39.88;18.05;;;;;;;-2.91;73.31;97912.22;1790256;78;25832;-90
2022/02/24 06:31:56;;;;;;;37.58;16.55;;;;;;;-2.88;73.39;97902.72;1790384;78;25252;-92
2022/02/24 06:34:23;;;;;;;60.98;22.85;;;;;;;-2.86;73.45;97896.84;1790320;78;25845;-88
2022/02/24 06:36:49;;;;;;;86.35;32.00;;;;;;;-2.84;73.59;97892.30;1790236;80;25745;-80
2022/02/24 06:39:16;;;;;;;108.47;41.00;;;;;;;-2.79;73.76;97899.89;1790382;80;27351;-88
2022/02/24 06:41:43;;;;;;;131.63;50.70;;;;;;;-2.75;73.76;97896.03;1789946;78;25773;-90
2022/02/24 06:44:09;;;;;;;123.38;49.40;;;;;;;-2.68;73.80;97891.50;1790718;78;25241;-92
2022/02/24 06:46:36;;;;;;;96.12;38.78;;;;;;;-2.59;73.84;97894.75;1791990;78;25681;-82
2022/02/24 06:49:06;;;;;;;74.95;34.55;;;;;;;-2.50;73.86;97893.19;1791061;78;25792;-90
2022/02/24 06:51:32;;;;;;;82.10;37.42;;;;;;;-2.44;73.82;97899.34;1791659;78;27507;-86
2022/02/24 06:53:59;;;;;;;85.57;38.02;;;;;;;-2.40;73.87;97891.52;1791716;79;25266;-89
2022/02/24 06:56:25;;;;;;;86.50;35.92;;;;;;;-2.35;73.93;97889.84;1791742;78;25432;-92
2022/02/24 06:58:52;;;;;;;91.63;39.53;;;;;;;-2.29;74.06;97892.00;1791123;78;25871;-94
2022/02/24 07:01:19;;;;;;;86.85;36.42;;;;;;;-2.24;74.10;97888.52;1783608;78;25615;-93
2022/02/24 07:03:46;;;;;;;86.70;35.17;;;;;;;-2.17;74.12;97887.58;1782657;79;27436;-85
2022/02/24 07:06:12;;;;;;;89.13;35.08;;;;;;;-2.11;74.16;97882.63;1782020;79;25259;-86
2022/02/24 07:08:39;;;;;;;76.12;29.70;;;;;;;-2.00;74.26;97884.43;1782748;79;25326;-91
2022/02/24 07:11:06;;;;;;;85.00;33.95;;;;;;;-1.93;74.34;97878.52;1783410;79;25511;-86
2022/02/24 07:13:33;;;;;;;126.45;49.38;;;;;;;-1.82;74.38;97880.33;1783615;79;25858;-84
2022/02/24 07:15:59;;;;;;;150.38;58.73;;;;;;;-1.71;74.46;97875.49;1783899;79;27405;-83
2022/02/24 07:18:26;;;;;;;125.50;48.28;;;;;;;-1.63;74.39;97878.35;1783590;79;25824;-86
2022/02/24 07:20:52;;;;;;;145.50;58.00;;;;;;;-1.51;74.48;97874.71;1783942;79;25239;-94
2022/02/24 07:23:21;;;;;;;127.95;51.50;;;;;;;-1.41;74.50;97866.85;1783971;79;25724;-86
2022/02/24 07:25:47;;;;;;;113.17;43.30;;;;;;;-1.32;74.50;97866.93;1783628;79;25770;-96
2022/02/24 07:28:14;;;;;;;82.22;35.03;;;;;;;-1.20;74.46;97865.08;1783588;79;27409;-85
2022/02/24 07:30:41;;;;;;;83.15;31.33;;;;;;;-1.11;74.48;97861.20;1783682;79;25646;-91
2022/02/24 07:33:07;;;;;;;68.80;28.47;;;;;;;-0.99;74.44;97861.14;1799708;77;25327;-81
2022/02/24 07:35:34;;;;;;;61.40;22.58;;;;;;;-0.88;74.45;97859.27;1784839;77;26634;-92
2022/02/24 07:38:00;;;;;;;34.78;14.43;;;;;;;-0.72;74.42;97857.98;1783846;79;25707;-91
2022/02/24 07:40:27;;;;;;;31.07;10.25;;;;;;;-0.57;74.27;97851.36;1781681;79;27740;-96
2022/02/24 07:42:54;;;;;;;32.40;11.28;;;;;;;-0.39;74.00;97847.98;1781381;79;26243;-89
2022/02/24 07:45:21;;;;;;;26.37;8.75;;;;;;;-0.21;73.81;97842.88;1781578;79;25535;-95
2022/02/24 07:47:47;;;;;;;31.70;9.35;;;;;;;0.00;73.51;97830.89;1781443;79;26307;-95
2022/02/24 07:50:14;;;;;;;22.07;9.33;;;;;;;0.20;73.22;97827.79;1781581;79;26001;-92
2022/02/24 07:52:43;;;;;;;25.05;9.38;;;;;;;0.38;72.98;97831.92;1781411;79;27397;-95
2022/02/24 07:55:11;;;;;;;19.75;8.08;;;;;;;0.60;72.70;97833.02;1781193;79;25613;-91
2022/02/24 07:57:39;;;;;;;96.30;27.50;;;;;;;0.82;72.43;97831.42;1781029;79;26293;-90
2022/02/24 08:00:13;;;;;;;100.10;28.87;;;;;;;1.08;71.99;97840.50;1782301;78;25856;-92
2022/02/24 08:02:38;;;;;;;43.78;14.23;;;;;;;1.36;71.79;97833.44;1790101;78;25634;-89
2022/02/24 08:05:05;;;;;;;29.42;10.35;;;;;;;1.66;71.31;97828.39;1790003;78;27204;-91
2022/02/24 08:07:31;;;;;;;30.75;9.78;;;;;;;1.92;70.64;97827.24;1789911;79;26471;-92
2022/02/24 08:09:58;;;;;;;20.90;7.72;;;;;;;2.24;70.32;97811.30;1790023;80;25682;-92
2022/02/24 08:12:39;;;;;;;23.22;8.60;;;;;;;2.52;69.81;97803.62;1789937;78;26530;-90
2022/02/24 08:15:08;;;;;;;18.75;8.30;;;;;;;2.85;69.46;97804.26;1790311;78;25786;-92
2022/02/24 08:17:35;;;;;;;17.42;8.08;;;;;;;3.15;68.79;97796.31;1789942;78;28137;-92
2022/02/24 08:20:07;;;;;;;26.02;8.75;;;;;;;3.38;68.19;97794.50;1789924;78;26055;-93
2022/02/24 08:22:40;;;;;;;25.80;8.28;;;;;;;3.64;67.92;97789.97;1790020;78;25247;-91
2022/02/24 08:25:11;;;;;;;20.02;8.48;;;;;;;3.88;67.26;97791.42;1789683;78;25720;-91
2022/02/24 08:27:39;;;;;;;27.17;10.53;;;;;;;4.17;67.16;97779.52;1790004;79;25789;-93
2022/02/24 08:30:10;;;;;;;19.98;8.58;;;;;;;4.44;66.44;97776.59;1789884;78;27606;-92
2022/02/24 08:32:38;;;;;;;21.95;8.68;;;;;;;4.64;66.04;97765.92;1789834;78;25705;-92
2022/02/24 08:35:08;;;;;;;30.00;10.90;;;;;;;4.93;65.57;97767.30;1789785;79;25657;-91
2022/02/24 08:37:35;;;;;;;43.33;14.38;;;;;;;5.08;64.80;97758.91;1789950;78;27274;-91
2022/02/24 08:40:07;;;;;;;32.88;12.37;;;;;;;5.31;64.61;97761.22;1789866;79;25729;-88
2022/02/24 08:42:34;;;;;;;43.23;11.53;;;;;;;5.56;64.48;97750.46;1790076;78;28166;-91
2022/02/24 08:45:01;;;;;;;32.53;10.50;;;;;;;5.80;63.95;97753.06;1789778;78;25811;-92
2022/02/24 08:47:27;;;;;;;22.87;7.80;;;;;;;6.09;63.76;97743.95;1789825;78;25744;-90
2022/02/24 08:49:54;;;;;;;28.17;9.53;;;;;;;6.33;62.94;97744.83;1789813;79;25812;-91
2022/02/24 08:52:21;;;;;;;31.93;12.15;;;;;;;6.59;62.73;97733.27;1789886;78;26314;-90
2022/02/24 08:54:47;;;;;;;20.37;6.90;;;;;;;6.88;62.03;97738.43;1789817;78;28416;-91
2022/02/24 08:57:14;;;;;;;14.53;6.78;;;;;;;7.11;61.24;97723.13;1789603;79;25684;-91
2022/02/24 08:59:41;;;;;;;19.75;6.62;;;;;;;7.31;60.74;97728.30;1789961;79;25756;-91
2022/02/24 09:02:07;;;;;;;14.00;6.50;;;;;;;7.60;60.63;97720.79;1789507;78;25794;-91
2022/02/24 09:04:34;;;;;;;17.23;7.17;;;;;;;7.87;59.06;97717.42;1789820;78;25742;-90
2022/02/24 09:07:00;;;;;;;12.45;6.83;;;;;;;8.06;58.77;97719.22;1789825;78;27337;-90
2022/02/24 09:09:27;;;;;;;16.67;7.75;;;;;;;8.32;58.29;97712.02;1789696;79;25647;-90
2022/02/24 09:11:54;;;;;;;13.45;6.60;;;;;;;8.52;57.76;97709.02;1789871;78;25789;-92
2022/02/24 09:14:20;;;;;;;21.30;5.35;;;;;;;8.81;57.19;97702.19;1790087;78;25695;-92
2022/02/24 09:16:47;;;;;;;13.32;6.45;;;;;;;9.16;56.40;97700.93;1790033;80;25750;-92
2022/02/24 09:19:14;;;;;;;17.48;7.47;;;;;;;9.47;56.13;97694.62;1789194;79;27409;-91
2022/02/24 09:21:41;;;;;;;18.73;7.47;;;;;;;9.73;55.04;97692.09;1789698;80;25824;-92
2022/02/24 09:24:07;;;;;;;18.67;6.97;;;;;;;9.97;54.87;97684.53;1790037;79;25692;-92
2022/02/24 09:26:34;;;;;;;13.88;6.65;;;;;;;10.18;53.60;97683.57;1790144;78;25762;-92
2022/02/24 09:29:01;;;;;;;16.75;6.95;;;;;;;10.32;53.82;97682.62;1790275;78;25787;-93
2022/02/24 09:31:28;;;;;;;10.93;6.30;;;;;;;10.43;52.85;97684.20;1790103;79;28144;-94
2022/02/24 09:33:55;;;;;;;15.72;6.55;;;;;;;10.50;52.01;97669.91;1790127;80;25755;-92
2022/02/24 09:36:22;;;;;;;15.45;6.95;;;;;;;10.79;51.97;97665.47;1790273;79;25766;-94
2022/02/24 09:38:49;;;;;;;12.50;4.30;;;;;;;11.05;51.17;97666.02;1790450;80;25802;-95
2022/02/24 09:41:18;;;;;;;8.18;3.72;;;;;;;11.37;50.93;97666.50;1790391;80;25739;-92
2022/02/24 09:43:45;;;;;;;13.25;5.92;;;;;;;11.54;49.92;97649.33;1790428;79;27525;-91
2022/02/24 09:46:13;;;;;;;11.83;5.37;;;;;;;11.75;49.55;97647.73;1791202;79;25983;-92
2022/02/24 09:48:42;;;;;;;15.80;5.67;;;;;;;11.93;48.88;97648.94;1792068;80;25193;-95
2022/02/24 09:51:14;;;;;;;13.22;4.90;;;;;;;12.11;48.35;97640.94;1790874;79;25670;-95
2022/02/24 09:53:42;;;;;;;11.05;4.30;;;;;;;12.12;48.05;97638.54;1792508;78;25245;-96
2022/02/24 09:56:18;;;;;;;16.23;8.50;;;;;;;12.18;46.79;97634.47;1792280;79;27419;-96
2022/02/24 09:58:46;;;;;;;15.80;7.37;;;;;;;12.33;46.75;97634.67;1792103;79;25198;-93
2022/02/24 10:01:15;;;;;;;15.90;7.55;;;;;;;12.40;45.69;97624.66;1819318;76;25237;-90
2022/02/24 10:03:46;;;;;;;12.80;6.28;;;;;;;12.45;45.77;97617.53;1787960;78;25505;-93
2022/02/24 10:06:15;;;;;;;10.18;4.50;;;;;;;12.63;45.45;97612.73;1751503;81;25830;-96
2022/02/24 10:08:48;;;;;;;8.45;3.90;;;;;;;12.71;45.33;97604.86;1751039;81;27466;-94
2022/02/24 10:11:25;;;;;;;9.68;3.87;;;;;;;12.66;44.30;97600.12;1766344;80;25712;-93
2022/02/24 10:14:09;;;;;;;10.80;5.08;;;;;;;12.87;44.11;97593.48;1761494;80;26386;-93
2022/02/24 10:16:59;;;;;;;10.20;4.72;;;;;;;12.87;42.94;97584.00;1761716;80;26482;-95
2022/02/24 10:19:43;;;;;;;7.47;3.85;;;;;;;12.70;43.06;97571.53;1761487;80;25734;-93
2022/02/24 10:22:26;;;;;;;8.95;3.85;;;;;;;13.07;43.31;97566.20;1761594;80;27524;-90
2022/02/24 10:24:58;;;;;;;;;;;;;;;13.39;42.79;97558.31;1764153;80;25734;-93
2022/02/24 10:27:34;;;;;;;12.98;6.12;;;;;;;13.65;40.67;97543.59;1760760;80;25763;-90
2022/02/24 10:30:16;;;;;;;11.08;5.15;;;;;;;13.84;41.71;97541.17;1761655;80;26285;-93
2022/02/24 10:32:47;;;;;;;15.65;7.83;;;;;;;13.87;41.48;97533.94;1761309;80;25264;-93
2022/02/24 10:35:40;;;;;;;9.70;4.78;;;;;;;14.02;40.70;97535.69;1761326;80;28312;-89
2022/02/24 10:38:11;;;;;;;10.45;3.95;;;;;;;14.16;41.24;97527.36;1761007;80;25842;-94
2022/02/24 10:40:42;;;;;;;11.50;4.08;;;;;;;14.34;40.65;97524.60;1761412;81;25736;-92
2022/02/24 10:43:16;;;;;;;9.15;4.05;;;;;;;14.45;39.76;97511.61;1761663;80;26674;-90
2022/02/24 10:46:07;;;;;;;10.82;4.42;;;;;;;14.48;39.36;97507.08;1761703;80;25770;-94
2022/02/24 10:48:51;;;;;;;11.38;3.72;;;;;;;14.51;39.55;97505.23;1761248;80;27405;-90
2022/02/24 10:51:30;;;;;;;9.70;3.70;;;;;;;14.65;39.21;97505.84;1760548;81;25850;-86
2022/02/24 10:54:09;;;;;;;7.55;3.83;;;;;;;14.65;38.79;97494.45;1761507;80;25798;-91
2022/02/24 10:56:42;;;;;;;8.70;3.52;;;;;;;14.53;37.80;97484.63;1761505;80;26448;-88
2022/02/24 10:59:14;;;;;;;6.08;2.85;;;;;;;14.72;38.03;97483.48;1744759;81;25788;-88
2022/02/24 11:01:40;;;;;;;9.23;4.37;;;;;;;14.90;37.68;97471.64;1760661;80;27366;-90
2022/02/24 11:04:08;;;;;;;8.63;3.92;;;;;;;15.02;36.39;97471.11;1760094;81;25256;-89
2022/02/24 11:06:37;;;;;;;10.10;3.05;;;;;;;15.13;36.58;97455.31;1759747;80;25686;-90
2022/02/24 11:09:07;;;;;;;6.55;2.98;;;;;;;15.26;34.70;97452.34;1759535;80;26634;-91
2022/02/24 11:11:37;;;;;;;8.85;3.33;;;;;;;15.42;35.82;97446.16;1759241;80;25840;-90
2022/02/24 11:14:10;;;;;;;8.33;2.80;;;;;;;15.47;34.97;97435.36;1759471;80;27346;-90
2022/02/24 11:16:37;;;;;;;5.62;2.80;;;;;;;15.83;35.27;97429.27;1759730;80;25713;-92
2022/02/24 11:19:04;;;;;;;9.48;3.15;;;;;;;16.10;34.56;97424.87;1760387;80;25758;-90
2022/02/24 11:21:32;;;;;;;7.20;3.47;;;;;;;16.35;34.80;97418.20;1759952;80;26488;-88
2022/02/24 11:23:58;;;;;;;5.47;3.10;;;;;;;16.54;34.37;97411.44;1760004;80;25749;-93
2022/02/24 11:26:33;;;;;;;6.30;3.17;;;;;;;16.88;34.21;97410.34;1760209;80;27340;-91